sensor_id;sensor_type;location;lat;lon;timestamp;P1;durP1;ratioP1;P2;durP2;ratioP2
74371;SDS011;62885;51.374;6.170;2023-11-19T00:00:52;4.85;;;2.78;;
74371;SDS011;62885;51.374;6.170;2023-11-19T00:03:17;6.45;;;3.25;;
74371;SDS011;62885;51.374;6.170;2023-11-19T00:05:42;4.72;;;3.03;;
74371;SDS011;62885;51.374;6.170;2023-11-19T00:08:11;5.25;;;3.10;;
74371;SDS011;62885;51.374;6.170;2023-11-19T00:10:36;6.97;;;2.53;;
74371;SDS011;62885;51.374;6.170;2023-11-19T00:13:02;7.18;;;3.00;;
74371;SDS011;62885;51.374;6.170;2023-11-19T00:15:30;4.07;;;2.70;;
74371;SDS011;62885;51.374;6.170;2023-11-19T00:17:55;5.95;;;2.92;;
74371;SDS011;62885;51.374;6.170;2023-11-19T00:20:20;5.60;;;2.80;;
74371;SDS011;62885;51.374;6.170;2023-11-19T00:22:48;3.90;;;2.65;;
74371;SDS011;62885;51.374;6.170;2023-11-19T00:25:16;5.05;;;2.97;;
74371;SDS011;62885;51.374;6.170;2023-11-19T00:27:42;5.45;;;3.10;;
74371;SDS011;62885;51.374;6.170;2023-11-19T00:30:09;4.53;;;2.75;;
74371;SDS011;62885;51.374;6.170;2023-11-19T00:32:35;5.82;;;3.08;;
74371;SDS011;62885;51.374;6.170;2023-11-19T00:35:03;5.35;;;3.25;;
74371;SDS011;62885;51.374;6.170;2023-11-19T00:37:29;5.82;;;3.20;;
74371;SDS011;62885;51.374;6.170;2023-11-19T00:39:55;6.07;;;3.00;;
74371;SDS011;62885;51.374;6.170;2023-11-19T00:42:21;5.25;;;3.28;;
74371;SDS011;62885;51.374;6.170;2023-11-19T00:44:47;5.45;;;3.03;;
74371;SDS011;62885;51.374;6.170;2023-11-19T00:47:12;6.93;;;2.97;;
74371;SDS011;62885;51.374;6.170;2023-11-19T00:49:38;5.88;;;2.88;;
74371;SDS011;62885;51.374;6.170;2023-11-19T00:52:03;4.18;;;2.47;;
74371;SDS011;62885;51.374;6.170;2023-11-19T00:54:28;4.82;;;2.78;;
74371;SDS011;62885;51.374;6.170;2023-11-19T00:56:54;5.78;;;3.03;;
74371;SDS011;62885;51.374;6.170;2023-11-19T00:59:20;5.90;;;3.38;;
74371;SDS011;62885;51.374;6.170;2023-11-19T01:01:45;6.20;;;3.05;;
74371;SDS011;62885;51.374;6.170;2023-11-19T01:04:13;5.40;;;3.00;;
74371;SDS011;62885;51.374;6.170;2023-11-19T01:06:39;5.30;;;3.15;;
74371;SDS011;62885;51.374;6.170;2023-11-19T01:09:04;5.15;;;2.60;;
74371;SDS011;62885;51.374;6.170;2023-11-19T01:11:29;7.40;;;2.92;;
74371;SDS011;62885;51.374;6.170;2023-11-19T01:13:55;4.30;;;2.55;;
74371;SDS011;62885;51.374;6.170;2023-11-19T01:16:20;4.47;;;2.83;;
74371;SDS011;62885;51.374;6.170;2023-11-19T01:18:49;4.82;;;3.10;;
74371;SDS011;62885;51.374;6.170;2023-11-19T01:21:15;4.53;;;2.65;;
74371;SDS011;62885;51.374;6.170;2023-11-19T01:23:41;4.22;;;2.55;;
74371;SDS011;62885;51.374;6.170;2023-11-19T01:26:10;4.45;;;2.28;;
74371;SDS011;62885;51.374;6.170;2023-11-19T01:28:37;4.93;;;2.65;;
74371;SDS011;62885;51.374;6.170;2023-11-19T01:31:04;4.47;;;2.47;;
74371;SDS011;62885;51.374;6.170;2023-11-19T01:33:29;4.53;;;2.80;;
74371;SDS011;62885;51.374;6.170;2023-11-19T01:35:55;5.85;;;3.25;;
74371;SDS011;62885;51.374;6.170;2023-11-19T01:38:23;5.13;;;2.90;;
74371;SDS011;62885;51.374;6.170;2023-11-19T01:40:49;4.30;;;2.67;;
74371;SDS011;62885;51.374;6.170;2023-11-19T01:43:30;5.28;;;2.90;;
74371;SDS011;62885;51.374;6.170;2023-11-19T01:45:59;7.70;;;2.78;;
74371;SDS011;62885;51.374;6.170;2023-11-19T01:48:24;10.55;;;2.75;;
74371;SDS011;62885;51.374;6.170;2023-11-19T01:50:50;8.20;;;2.90;;
74371;SDS011;62885;51.374;6.170;2023-11-19T01:53:17;7.72;;;2.60;;
74371;SDS011;62885;51.374;6.170;2023-11-19T01:55:43;8.82;;;2.40;;
74371;SDS011;62885;51.374;6.170;2023-11-19T01:58:09;5.53;;;2.47;;
74371;SDS011;62885;51.374;6.170;2023-11-19T02:00:34;8.65;;;2.00;;
74371;SDS011;62885;51.374;6.170;2023-11-19T02:03:00;7.57;;;2.70;;
74371;SDS011;62885;51.374;6.170;2023-11-19T02:05:25;4.13;;;2.25;;
74371;SDS011;62885;51.374;6.170;2023-11-19T02:07:51;5.45;;;2.20;;
74371;SDS011;62885;51.374;6.170;2023-11-19T02:10:17;7.80;;;2.25;;
74371;SDS011;62885;51.374;6.170;2023-11-19T02:12:44;5.22;;;2.30;;
74371;SDS011;62885;51.374;6.170;2023-11-19T02:15:10;6.03;;;2.15;;
74371;SDS011;62885;51.374;6.170;2023-11-19T02:17:36;7.38;;;2.30;;
74371;SDS011;62885;51.374;6.170;2023-11-19T02:20:05;3.63;;;1.83;;
74371;SDS011;62885;51.374;6.170;2023-11-19T02:22:36;7.13;;;2.20;;
74371;SDS011;62885;51.374;6.170;2023-11-19T02:25:04;5.35;;;2.33;;
74371;SDS011;62885;51.374;6.170;2023-11-19T02:30:25;4.95;;;1.63;;
74371;SDS011;62885;51.374;6.170;2023-11-19T02:32:57;5.93;;;1.65;;
74371;SDS011;62885;51.374;6.170;2023-11-19T02:35:26;8.63;;;2.30;;
74371;SDS011;62885;51.374;6.170;2023-11-19T02:37:53;8.40;;;1.98;;
74371;SDS011;62885;51.374;6.170;2023-11-19T02:40:19;9.15;;;1.98;;
74371;SDS011;62885;51.374;6.170;2023-11-19T02:42:45;7.47;;;2.13;;
74371;SDS011;62885;51.374;6.170;2023-11-19T02:45:10;7.40;;;2.22;;
74371;SDS011;62885;51.374;6.170;2023-11-19T02:47:40;4.82;;;1.95;;
74371;SDS011;62885;51.374;6.170;2023-11-19T02:50:07;6.25;;;2.30;;
74371;SDS011;62885;51.374;6.170;2023-11-19T02:52:42;10.25;;;2.17;;
74371;SDS011;62885;51.374;6.170;2023-11-19T02:55:10;8.75;;;2.40;;
74371;SDS011;62885;51.374;6.170;2023-11-19T02:57:37;9.02;;;2.22;;
74371;SDS011;62885;51.374;6.170;2023-11-19T03:00:05;7.72;;;2.63;;
74371;SDS011;62885;51.374;6.170;2023-11-19T03:02:39;13.48;;;2.15;;
74371;SDS011;62885;51.374;6.170;2023-11-19T03:05:19;9.75;;;2.53;;
74371;SDS011;62885;51.374;6.170;2023-11-19T03:07:44;8.57;;;2.03;;
74371;SDS011;62885;51.374;6.170;2023-11-19T03:10:10;9.00;;;2.53;;
74371;SDS011;62885;51.374;6.170;2023-11-19T03:12:39;10.57;;;2.20;;
74371;SDS011;62885;51.374;6.170;2023-11-19T03:15:06;12.07;;;2.50;;
74371;SDS011;62885;51.374;6.170;2023-11-19T03:17:32;11.77;;;2.45;;
74371;SDS011;62885;51.374;6.170;2023-11-19T03:19:58;10.48;;;2.38;;
74371;SDS011;62885;51.374;6.170;2023-11-19T03:22:24;8.68;;;2.25;;
74371;SDS011;62885;51.374;6.170;2023-11-19T03:24:52;10.80;;;2.40;;
74371;SDS011;62885;51.374;6.170;2023-11-19T03:27:18;10.68;;;2.40;;
74371;SDS011;62885;51.374;6.170;2023-11-19T03:29:43;10.93;;;2.50;;
74371;SDS011;62885;51.374;6.170;2023-11-19T03:32:08;14.85;;;3.08;;
74371;SDS011;62885;51.374;6.170;2023-11-19T03:34:34;9.95;;;2.60;;
74371;SDS011;62885;51.374;6.170;2023-11-19T03:36:59;11.90;;;1.98;;
74371;SDS011;62885;51.374;6.170;2023-11-19T03:39:24;11.40;;;2.35;;
74371;SDS011;62885;51.374;6.170;2023-11-19T03:41:50;10.35;;;2.97;;
74371;SDS011;62885;51.374;6.170;2023-11-19T03:44:16;12.55;;;2.38;;
74371;SDS011;62885;51.374;6.170;2023-11-19T03:46:41;12.18;;;2.60;;
74371;SDS011;62885;51.374;6.170;2023-11-19T03:49:07;10.27;;;2.10;;
74371;SDS011;62885;51.374;6.170;2023-11-19T03:51:32;10.02;;;2.30;;
74371;SDS011;62885;51.374;6.170;2023-11-19T03:53:59;12.07;;;2.28;;
74371;SDS011;62885;51.374;6.170;2023-11-19T03:56:24;15.95;;;2.42;;
74371;SDS011;62885;51.374;6.170;2023-11-19T03:58:49;14.02;;;2.55;;
74371;SDS011;62885;51.374;6.170;2023-11-19T04:01:15;13.88;;;3.30;;
74371;SDS011;62885;51.374;6.170;2023-11-19T04:03:40;14.65;;;3.08;;
74371;SDS011;62885;51.374;6.170;2023-11-19T04:06:06;9.25;;;2.00;;
74371;SDS011;62885;51.374;6.170;2023-11-19T04:08:31;12.95;;;2.90;;
74371;SDS011;62885;51.374;6.170;2023-11-19T04:10:57;11.52;;;2.10;;
74371;SDS011;62885;51.374;6.170;2023-11-19T04:13:22;18.92;;;2.92;;
74371;SDS011;62885;51.374;6.170;2023-11-19T04:15:49;12.60;;;2.72;;
74371;SDS011;62885;51.374;6.170;2023-11-19T04:18:15;15.15;;;2.50;;
74371;SDS011;62885;51.374;6.170;2023-11-19T04:20:41;14.65;;;2.50;;
74371;SDS011;62885;51.374;6.170;2023-11-19T04:23:07;15.25;;;2.45;;
74371;SDS011;62885;51.374;6.170;2023-11-19T04:25:33;10.68;;;2.15;;
74371;SDS011;62885;51.374;6.170;2023-11-19T04:27:59;15.13;;;2.40;;
74371;SDS011;62885;51.374;6.170;2023-11-19T04:30:25;9.07;;;2.70;;
74371;SDS011;62885;51.374;6.170;2023-11-19T04:32:50;13.40;;;3.15;;
74371;SDS011;62885;51.374;6.170;2023-11-19T04:35:15;16.60;;;3.65;;
74371;SDS011;62885;51.374;6.170;2023-11-19T04:37:41;12.98;;;2.40;;
74371;SDS011;62885;51.374;6.170;2023-11-19T04:40:07;10.10;;;2.33;;
74371;SDS011;62885;51.374;6.170;2023-11-19T04:42:33;12.68;;;2.53;;
74371;SDS011;62885;51.374;6.170;2023-11-19T04:44:58;11.38;;;2.55;;
74371;SDS011;62885;51.374;6.170;2023-11-19T04:47:23;13.40;;;2.35;;
74371;SDS011;62885;51.374;6.170;2023-11-19T04:49:49;12.20;;;2.08;;
74371;SDS011;62885;51.374;6.170;2023-11-19T04:52:14;15.35;;;2.75;;
74371;SDS011;62885;51.374;6.170;2023-11-19T04:54:43;18.95;;;2.85;;
74371;SDS011;62885;51.374;6.170;2023-11-19T04:57:09;12.25;;;1.90;;
74371;SDS011;62885;51.374;6.170;2023-11-19T04:59:36;15.27;;;2.65;;
74371;SDS011;62885;51.374;6.170;2023-11-19T05:02:01;15.45;;;2.72;;
74371;SDS011;62885;51.374;6.170;2023-11-19T05:04:27;16.10;;;2.88;;
74371;SDS011;62885;51.374;6.170;2023-11-19T05:06:52;13.13;;;2.72;;
74371;SDS011;62885;51.374;6.170;2023-11-19T05:09:18;10.43;;;2.20;;
74371;SDS011;62885;51.374;6.170;2023-11-19T05:11:43;11.90;;;3.35;;
74371;SDS011;62885;51.374;6.170;2023-11-19T05:14:09;11.32;;;2.42;;
74371;SDS011;62885;51.374;6.170;2023-11-19T05:16:34;15.68;;;2.65;;
74371;SDS011;62885;51.374;6.170;2023-11-19T05:19:00;9.50;;;2.30;;
74371;SDS011;62885;51.374;6.170;2023-11-19T05:21:25;18.10;;;3.70;;
74371;SDS011;62885;51.374;6.170;2023-11-19T05:23:51;14.32;;;2.58;;
74371;SDS011;62885;51.374;6.170;2023-11-19T05:26:20;9.88;;;1.95;;
74371;SDS011;62885;51.374;6.170;2023-11-19T05:28:46;18.05;;;3.53;;
74371;SDS011;62885;51.374;6.170;2023-11-19T05:31:12;14.07;;;2.90;;
74371;SDS011;62885;51.374;6.170;2023-11-19T05:33:38;12.00;;;2.30;;
74371;SDS011;62885;51.374;6.170;2023-11-19T05:36:04;18.35;;;3.65;;
74371;SDS011;62885;51.374;6.170;2023-11-19T05:38:30;17.63;;;3.78;;
74371;SDS011;62885;51.374;6.170;2023-11-19T05:40:55;14.82;;;2.88;;
74371;SDS011;62885;51.374;6.170;2023-11-19T05:43:21;13.15;;;2.35;;
74371;SDS011;62885;51.374;6.170;2023-11-19T05:45:46;15.90;;;2.45;;
74371;SDS011;62885;51.374;6.170;2023-11-19T05:48:12;14.30;;;2.90;;
74371;SDS011;62885;51.374;6.170;2023-11-19T05:50:37;17.90;;;3.28;;
74371;SDS011;62885;51.374;6.170;2023-11-19T05:53:03;19.00;;;2.97;;
74371;SDS011;62885;51.374;6.170;2023-11-19T05:55:33;10.95;;;2.70;;
74371;SDS011;62885;51.374;6.170;2023-11-19T05:57:59;15.13;;;2.13;;
74371;SDS011;62885;51.374;6.170;2023-11-19T06:00:24;15.43;;;2.92;;
74371;SDS011;62885;51.374;6.170;2023-11-19T06:02:51;15.60;;;2.35;;
74371;SDS011;62885;51.374;6.170;2023-11-19T06:05:17;11.98;;;2.45;;
74371;SDS011;62885;51.374;6.170;2023-11-19T06:07:43;12.02;;;2.60;;
74371;SDS011;62885;51.374;6.170;2023-11-19T06:10:08;16.08;;;2.50;;
74371;SDS011;62885;51.374;6.170;2023-11-19T06:12:35;12.73;;;2.80;;
74371;SDS011;62885;51.374;6.170;2023-11-19T06:15:04;15.23;;;2.17;;
74371;SDS011;62885;51.374;6.170;2023-11-19T06:17:30;14.05;;;2.35;;
74371;SDS011;62885;51.374;6.170;2023-11-19T06:19:55;17.50;;;3.80;;
74371;SDS011;62885;51.374;6.170;2023-11-19T06:22:21;13.07;;;2.60;;
74371;SDS011;62885;51.374;6.170;2023-11-19T06:24:46;13.27;;;2.60;;
74371;SDS011;62885;51.374;6.170;2023-11-19T06:27:11;16.35;;;2.78;;
74371;SDS011;62885;51.374;6.170;2023-11-19T06:29:38;12.88;;;2.60;;
74371;SDS011;62885;51.374;6.170;2023-11-19T06:32:05;16.13;;;2.55;;
74371;SDS011;62885;51.374;6.170;2023-11-19T06:34:31;12.85;;;2.30;;
74371;SDS011;62885;51.374;6.170;2023-11-19T06:36:58;16.17;;;2.42;;
74371;SDS011;62885;51.374;6.170;2023-11-19T06:39:23;17.35;;;3.00;;
74371;SDS011;62885;51.374;6.170;2023-11-19T06:41:48;10.70;;;2.10;;
74371;SDS011;62885;51.374;6.170;2023-11-19T06:44:14;15.75;;;4.45;;
74371;SDS011;62885;51.374;6.170;2023-11-19T06:46:39;11.85;;;2.60;;
74371;SDS011;62885;51.374;6.170;2023-11-19T06:49:05;21.08;;;2.92;;
74371;SDS011;62885;51.374;6.170;2023-11-19T06:51:32;14.48;;;3.22;;
74371;SDS011;62885;51.374;6.170;2023-11-19T06:53:58;12.48;;;2.67;;
74371;SDS011;62885;51.374;6.170;2023-11-19T06:56:24;12.73;;;2.85;;
74371;SDS011;62885;51.374;6.170;2023-11-19T06:58:50;14.50;;;2.78;;
74371;SDS011;62885;51.374;6.170;2023-11-19T07:01:16;14.35;;;3.42;;
74371;SDS011;62885;51.374;6.170;2023-11-19T07:03:43;14.77;;;2.50;;
74371;SDS011;62885;51.374;6.170;2023-11-19T07:06:10;12.45;;;2.60;;
74371;SDS011;62885;51.374;6.170;2023-11-19T07:08:35;14.77;;;2.65;;
74371;SDS011;62885;51.374;6.170;2023-11-19T07:11:01;17.05;;;3.03;;
74371;SDS011;62885;51.374;6.170;2023-11-19T07:13:27;14.57;;;2.83;;
74371;SDS011;62885;51.374;6.170;2023-11-19T07:15:53;12.55;;;2.47;;
74371;SDS011;62885;51.374;6.170;2023-11-19T07:18:19;15.77;;;3.75;;
74371;SDS011;62885;51.374;6.170;2023-11-19T07:20:47;14.43;;;3.20;;
74371;SDS011;62885;51.374;6.170;2023-11-19T07:23:12;19.23;;;3.20;;
74371;SDS011;62885;51.374;6.170;2023-11-19T07:25:39;12.60;;;2.72;;
74371;SDS011;62885;51.374;6.170;2023-11-19T07:28:05;17.45;;;3.00;;
74371;SDS011;62885;51.374;6.170;2023-11-19T07:30:32;13.43;;;2.70;;
74371;SDS011;62885;51.374;6.170;2023-11-19T07:32:58;11.88;;;2.40;;
74371;SDS011;62885;51.374;6.170;2023-11-19T07:35:23;14.63;;;2.75;;
74371;SDS011;62885;51.374;6.170;2023-11-19T07:37:48;14.80;;;2.97;;
74371;SDS011;62885;51.374;6.170;2023-11-19T07:40:15;13.90;;;2.40;;
74371;SDS011;62885;51.374;6.170;2023-11-19T07:42:40;15.48;;;2.75;;
74371;SDS011;62885;51.374;6.170;2023-11-19T07:45:06;10.90;;;1.92;;
74371;SDS011;62885;51.374;6.170;2023-11-19T07:47:32;12.07;;;2.90;;
74371;SDS011;62885;51.374;6.170;2023-11-19T07:49:57;16.58;;;3.10;;
74371;SDS011;62885;51.374;6.170;2023-11-19T07:52:22;15.88;;;3.92;;
74371;SDS011;62885;51.374;6.170;2023-11-19T07:54:48;18.80;;;3.70;;
74371;SDS011;62885;51.374;6.170;2023-11-19T07:57:13;17.98;;;2.65;;
74371;SDS011;62885;51.374;6.170;2023-11-19T07:59:39;16.75;;;3.03;;
74371;SDS011;62885;51.374;6.170;2023-11-19T08:02:04;10.88;;;2.20;;
74371;SDS011;62885;51.374;6.170;2023-11-19T08:04:30;16.70;;;2.95;;
74371;SDS011;62885;51.374;6.170;2023-11-19T08:06:55;14.40;;;2.33;;
74371;SDS011;62885;51.374;6.170;2023-11-19T08:09:21;13.45;;;3.33;;
74371;SDS011;62885;51.374;6.170;2023-11-19T08:11:47;13.50;;;2.70;;
74371;SDS011;62885;51.374;6.170;2023-11-19T08:14:13;18.25;;;3.00;;
74371;SDS011;62885;51.374;6.170;2023-11-19T08:16:39;15.00;;;2.97;;
74371;SDS011;62885;51.374;6.170;2023-11-19T08:19:04;15.05;;;3.58;;
74371;SDS011;62885;51.374;6.170;2023-11-19T08:21:30;12.88;;;3.00;;
74371;SDS011;62885;51.374;6.170;2023-11-19T08:23:55;15.38;;;3.35;;
74371;SDS011;62885;51.374;6.170;2023-11-19T08:26:21;14.10;;;2.05;;
74371;SDS011;62885;51.374;6.170;2023-11-19T08:28:46;16.90;;;3.10;;
74371;SDS011;62885;51.374;6.170;2023-11-19T08:31:12;17.60;;;3.13;;
74371;SDS011;62885;51.374;6.170;2023-11-19T08:33:38;12.40;;;2.45;;
74371;SDS011;62885;51.374;6.170;2023-11-19T08:36:03;14.15;;;3.65;;
74371;SDS011;62885;51.374;6.170;2023-11-19T08:38:29;11.85;;;2.75;;
74371;SDS011;62885;51.374;6.170;2023-11-19T08:40:55;12.43;;;3.40;;
74371;SDS011;62885;51.374;6.170;2023-11-19T08:43:25;17.33;;;3.08;;
74371;SDS011;62885;51.374;6.170;2023-11-19T08:45:51;16.15;;;2.60;;
74371;SDS011;62885;51.374;6.170;2023-11-19T08:48:16;16.00;;;3.38;;
74371;SDS011;62885;51.374;6.170;2023-11-19T08:50:42;16.42;;;2.10;;
74371;SDS011;62885;51.374;6.170;2023-11-19T08:53:07;16.95;;;3.17;;
74371;SDS011;62885;51.374;6.170;2023-11-19T08:55:32;14.02;;;2.58;;
74371;SDS011;62885;51.374;6.170;2023-11-19T08:58:00;13.90;;;2.42;;
74371;SDS011;62885;51.374;6.170;2023-11-19T09:00:27;9.95;;;2.35;;
74371;SDS011;62885;51.374;6.170;2023-11-19T09:02:52;13.45;;;2.28;;
74371;SDS011;62885;51.374;6.170;2023-11-19T09:05:17;11.63;;;2.53;;
74371;SDS011;62885;51.374;6.170;2023-11-19T09:07:43;14.73;;;2.80;;
74371;SDS011;62885;51.374;6.170;2023-11-19T09:10:08;20.30;;;3.22;;
74371;SDS011;62885;51.374;6.170;2023-11-19T09:12:34;20.38;;;3.60;;
74371;SDS011;62885;51.374;6.170;2023-11-19T09:15:00;19.13;;;3.22;;
74371;SDS011;62885;51.374;6.170;2023-11-19T09:17:25;17.27;;;2.95;;
74371;SDS011;62885;51.374;6.170;2023-11-19T09:19:51;25.77;;;4.32;;
74371;SDS011;62885;51.374;6.170;2023-11-19T09:22:16;14.38;;;3.10;;
74371;SDS011;62885;51.374;6.170;2023-11-19T09:24:41;22.98;;;4.75;;
74371;SDS011;62885;51.374;6.170;2023-11-19T09:27:09;16.20;;;2.65;;
74371;SDS011;62885;51.374;6.170;2023-11-19T09:29:34;22.65;;;3.50;;
74371;SDS011;62885;51.374;6.170;2023-11-19T09:31:59;16.13;;;3.00;;
74371;SDS011;62885;51.374;6.170;2023-11-19T09:34:25;12.07;;;3.08;;
74371;SDS011;62885;51.374;6.170;2023-11-19T09:36:50;15.40;;;2.58;;
74371;SDS011;62885;51.374;6.170;2023-11-19T09:39:16;13.23;;;2.63;;
74371;SDS011;62885;51.374;6.170;2023-11-19T09:41:43;15.20;;;2.35;;
74371;SDS011;62885;51.374;6.170;2023-11-19T09:44:11;17.95;;;3.15;;
74371;SDS011;62885;51.374;6.170;2023-11-19T09:46:37;13.68;;;2.88;;
74371;SDS011;62885;51.374;6.170;2023-11-19T09:49:04;14.23;;;2.70;;
74371;SDS011;62885;51.374;6.170;2023-11-19T09:51:32;15.65;;;4.35;;
74371;SDS011;62885;51.374;6.170;2023-11-19T09:53:58;16.92;;;3.50;;
74371;SDS011;62885;51.374;6.170;2023-11-19T09:56:23;13.93;;;3.63;;
74371;SDS011;62885;51.374;6.170;2023-11-19T09:58:49;19.73;;;3.65;;
74371;SDS011;62885;51.374;6.170;2023-11-19T10:01:14;14.35;;;3.40;;
74371;SDS011;62885;51.374;6.170;2023-11-19T10:03:40;19.80;;;3.60;;
74371;SDS011;62885;51.374;6.170;2023-11-19T10:06:09;17.20;;;3.38;;
74371;SDS011;62885;51.374;6.170;2023-11-19T10:08:38;17.02;;;2.83;;
74371;SDS011;62885;51.374;6.170;2023-11-19T10:11:05;14.75;;;3.17;;
74371;SDS011;62885;51.374;6.170;2023-11-19T10:13:31;15.73;;;3.50;;
74371;SDS011;62885;51.374;6.170;2023-11-19T10:15:56;17.08;;;4.30;;
74371;SDS011;62885;51.374;6.170;2023-11-19T10:18:25;12.10;;;2.40;;
74371;SDS011;62885;51.374;6.170;2023-11-19T10:20:51;18.02;;;2.67;;
74371;SDS011;62885;51.374;6.170;2023-11-19T10:23:17;17.58;;;3.10;;
74371;SDS011;62885;51.374;6.170;2023-11-19T10:25:42;18.30;;;3.85;;
74371;SDS011;62885;51.374;6.170;2023-11-19T10:28:07;12.68;;;2.42;;
74371;SDS011;62885;51.374;6.170;2023-11-19T10:30:33;13.48;;;3.00;;
74371;SDS011;62885;51.374;6.170;2023-11-19T10:33:09;12.00;;;3.15;;
74371;SDS011;62885;51.374;6.170;2023-11-19T10:35:55;11.13;;;2.83;;
74371;SDS011;62885;51.374;6.170;2023-11-19T10:38:22;17.40;;;2.95;;
74371;SDS011;62885;51.374;6.170;2023-11-19T10:40:48;14.85;;;2.47;;
74371;SDS011;62885;51.374;6.170;2023-11-19T10:43:15;20.75;;;2.75;;
74371;SDS011;62885;51.374;6.170;2023-11-19T10:45:42;16.63;;;3.60;;
74371;SDS011;62885;51.374;6.170;2023-11-19T10:48:07;16.17;;;2.85;;
74371;SDS011;62885;51.374;6.170;2023-11-19T10:50:36;13.50;;;2.42;;
74371;SDS011;62885;51.374;6.170;2023-11-19T10:53:03;13.32;;;2.83;;
74371;SDS011;62885;51.374;6.170;2023-11-19T10:55:33;18.13;;;2.38;;
74371;SDS011;62885;51.374;6.170;2023-11-19T10:58:06;16.77;;;3.17;;
74371;SDS011;62885;51.374;6.170;2023-11-19T11:01:07;14.98;;;3.47;;
74371;SDS011;62885;51.374;6.170;2023-11-19T11:03:31;13.48;;;2.65;;
74371;SDS011;62885;51.374;6.170;2023-11-19T11:06:05;13.80;;;2.33;;
74371;SDS011;62885;51.374;6.170;2023-11-19T11:08:31;10.13;;;2.63;;
74371;SDS011;62885;51.374;6.170;2023-11-19T11:10:57;15.15;;;2.92;;
74371;SDS011;62885;51.374;6.170;2023-11-19T11:13:23;11.90;;;2.63;;
74371;SDS011;62885;51.374;6.170;2023-11-19T11:15:50;8.50;;;2.33;;
74371;SDS011;62885;51.374;6.170;2023-11-19T11:18:16;13.45;;;2.83;;
74371;SDS011;62885;51.374;6.170;2023-11-19T11:20:45;13.48;;;2.80;;
74371;SDS011;62885;51.374;6.170;2023-11-19T11:28:59;14.48;;;2.88;;
74371;SDS011;62885;51.374;6.170;2023-11-19T11:31:38;18.02;;;2.53;;
74371;SDS011;62885;51.374;6.170;2023-11-19T11:39:43;18.75;;;4.47;;
74371;SDS011;62885;51.374;6.170;2023-11-19T11:50:10;12.55;;;3.03;;
74371;SDS011;62885;51.374;6.170;2023-11-19T11:55:27;12.93;;;3.20;;
74371;SDS011;62885;51.374;6.170;2023-11-19T11:57:56;14.00;;;2.83;;
74371;SDS011;62885;51.374;6.170;2023-11-19T12:00:38;14.75;;;2.58;;
74371;SDS011;62885;51.374;6.170;2023-11-19T12:03:05;9.35;;;2.50;;
74371;SDS011;62885;51.374;6.170;2023-11-19T12:05:32;8.18;;;2.30;;
74371;SDS011;62885;51.374;6.170;2023-11-19T12:08:05;13.50;;;2.95;;
74371;SDS011;62885;51.374;6.170;2023-11-19T12:10:36;11.15;;;2.13;;
74371;SDS011;62885;51.374;6.170;2023-11-19T12:18:20;12.32;;;2.60;;
74371;SDS011;62885;51.374;6.170;2023-11-19T12:20:54;14.77;;;2.30;;
74371;SDS011;62885;51.374;6.170;2023-11-19T12:23:19;13.32;;;3.72;;
74371;SDS011;62885;51.374;6.170;2023-11-19T12:25:45;15.50;;;2.90;;
74371;SDS011;62885;51.374;6.170;2023-11-19T12:28:14;9.25;;;2.10;;
74371;SDS011;62885;51.374;6.170;2023-11-19T12:30:42;12.77;;;2.65;;
74371;SDS011;62885;51.374;6.170;2023-11-19T12:33:09;10.30;;;2.10;;
74371;SDS011;62885;51.374;6.170;2023-11-19T12:35:45;14.15;;;2.17;;
74371;SDS011;62885;51.374;6.170;2023-11-19T12:41:03;19.77;;;2.80;;
74371;SDS011;62885;51.374;6.170;2023-11-19T12:46:02;14.13;;;2.85;;
74371;SDS011;62885;51.374;6.170;2023-11-19T12:48:45;10.68;;;2.17;;
74371;SDS011;62885;51.374;6.170;2023-11-19T12:51:11;10.30;;;2.20;;
74371;SDS011;62885;51.374;6.170;2023-11-19T12:53:52;11.95;;;3.10;;
74371;SDS011;62885;51.374;6.170;2023-11-19T12:56:23;15.40;;;2.30;;
74371;SDS011;62885;51.374;6.170;2023-11-19T12:58:49;9.50;;;2.30;;
74371;SDS011;62885;51.374;6.170;2023-11-19T13:01:18;11.95;;;1.95;;
74371;SDS011;62885;51.374;6.170;2023-11-19T13:03:45;15.68;;;4.05;;
74371;SDS011;62885;51.374;6.170;2023-11-19T13:06:12;11.88;;;2.40;;
74371;SDS011;62885;51.374;6.170;2023-11-19T13:08:42;15.70;;;2.63;;
74371;SDS011;62885;51.374;6.170;2023-11-19T13:11:09;16.13;;;2.88;;
74371;SDS011;62885;51.374;6.170;2023-11-19T13:18:50;7.32;;;1.95;;
74371;SDS011;62885;51.374;6.170;2023-11-19T13:21:16;9.90;;;2.47;;
74371;SDS011;62885;51.374;6.170;2023-11-19T13:23:42;5.93;;;2.05;;
74371;SDS011;62885;51.374;6.170;2023-11-19T13:26:08;13.07;;;2.45;;
74371;SDS011;62885;51.374;6.170;2023-11-19T13:28:34;14.55;;;2.40;;
74371;SDS011;62885;51.374;6.170;2023-11-19T13:30:59;16.98;;;2.42;;
74371;SDS011;62885;51.374;6.170;2023-11-19T13:33:24;10.35;;;2.78;;
74371;SDS011;62885;51.374;6.170;2023-11-19T13:35:51;17.88;;;3.03;;
74371;SDS011;62885;51.374;6.170;2023-11-19T13:38:16;10.88;;;2.22;;
74371;SDS011;62885;51.374;6.170;2023-11-19T13:40:42;12.27;;;1.92;;
74371;SDS011;62885;51.374;6.170;2023-11-19T13:43:07;13.05;;;2.15;;
74371;SDS011;62885;51.374;6.170;2023-11-19T13:45:33;8.60;;;1.98;;
74371;SDS011;62885;51.374;6.170;2023-11-19T13:47:59;15.95;;;3.58;;
74371;SDS011;62885;51.374;6.170;2023-11-19T13:50:24;11.82;;;2.25;;
74371;SDS011;62885;51.374;6.170;2023-11-19T13:52:50;12.05;;;2.65;;
74371;SDS011;62885;51.374;6.170;2023-11-19T13:55:16;13.15;;;2.88;;
74371;SDS011;62885;51.374;6.170;2023-11-19T13:57:42;10.85;;;2.47;;
74371;SDS011;62885;51.374;6.170;2023-11-19T14:00:08;12.00;;;2.58;;
74371;SDS011;62885;51.374;6.170;2023-11-19T14:02:44;14.25;;;3.45;;
74371;SDS011;62885;51.374;6.170;2023-11-19T14:05:12;12.50;;;3.22;;
74371;SDS011;62885;51.374;6.170;2023-11-19T14:07:39;14.98;;;2.70;;
74371;SDS011;62885;51.374;6.170;2023-11-19T14:10:05;10.52;;;2.53;;
74371;SDS011;62885;51.374;6.170;2023-11-19T14:12:35;8.75;;;1.95;;
74371;SDS011;62885;51.374;6.170;2023-11-19T14:15:01;13.52;;;2.45;;
74371;SDS011;62885;51.374;6.170;2023-11-19T14:17:27;12.25;;;2.05;;
74371;SDS011;62885;51.374;6.170;2023-11-19T14:19:52;13.23;;;3.63;;
74371;SDS011;62885;51.374;6.170;2023-11-19T14:22:18;12.98;;;3.33;;
74371;SDS011;62885;51.374;6.170;2023-11-19T14:24:44;15.70;;;2.83;;
74371;SDS011;62885;51.374;6.170;2023-11-19T14:27:09;12.27;;;2.33;;
74371;SDS011;62885;51.374;6.170;2023-11-19T14:29:35;10.30;;;2.53;;
74371;SDS011;62885;51.374;6.170;2023-11-19T14:32:01;9.55;;;2.60;;
74371;SDS011;62885;51.374;6.170;2023-11-19T14:34:28;17.27;;;2.45;;
74371;SDS011;62885;51.374;6.170;2023-11-19T14:36:54;12.80;;;3.35;;
74371;SDS011;62885;51.374;6.170;2023-11-19T14:39:20;13.23;;;2.72;;
74371;SDS011;62885;51.374;6.170;2023-11-19T14:41:45;10.63;;;2.60;;
74371;SDS011;62885;51.374;6.170;2023-11-19T14:44:10;8.63;;;2.75;;
74371;SDS011;62885;51.374;6.170;2023-11-19T14:46:36;10.30;;;2.30;;
74371;SDS011;62885;51.374;6.170;2023-11-19T14:49:02;12.15;;;3.08;;
74371;SDS011;62885;51.374;6.170;2023-11-19T14:51:28;10.25;;;2.80;;
74371;SDS011;62885;51.374;6.170;2023-11-19T14:53:54;19.42;;;3.75;;
74371;SDS011;62885;51.374;6.170;2023-11-19T14:56:19;11.90;;;2.28;;
74371;SDS011;62885;51.374;6.170;2023-11-19T14:58:45;13.88;;;3.30;;
74371;SDS011;62885;51.374;6.170;2023-11-19T15:01:13;14.15;;;2.45;;
74371;SDS011;62885;51.374;6.170;2023-11-19T15:03:39;14.05;;;2.90;;
74371;SDS011;62885;51.374;6.170;2023-11-19T15:06:05;12.90;;;2.28;;
74371;SDS011;62885;51.374;6.170;2023-11-19T15:08:31;14.70;;;3.25;;
74371;SDS011;62885;51.374;6.170;2023-11-19T15:10:57;15.13;;;3.35;;
74371;SDS011;62885;51.374;6.170;2023-11-19T15:13:23;15.25;;;3.22;;
74371;SDS011;62885;51.374;6.170;2023-11-19T15:15:48;12.60;;;3.50;;